sensor_id;sensor_type;location;lat;lon;timestamp;temperature;humidity
5492;DHT22;2768;53.540;10.224;2023-04-25T00:05:28;8.40;1.00
5492;DHT22;2768;53.540;10.224;2023-04-25T00:11:24;8.40;1.00
5492;DHT22;2768;53.540;10.224;2023-04-25T00:17:17;8.40;1.00
5492;DHT22;2768;53.540;10.224;2023-04-25T00:23:11;8.40;1.00
5492;DHT22;2768;53.540;10.224;2023-04-25T00:29:05;8.40;1.00
5492;DHT22;2768;53.540;10.224;2023-04-25T00:34:58;8.20;1.00
5492;DHT22;2768;53.540;10.224;2023-04-25T00:40:51;8.20;1.00
5492;DHT22;2768;53.540;10.224;2023-04-25T00:46:47;8.20;1.00
5492;DHT22;2768;53.540;10.224;2023-04-25T00:52:43;8.30;1.00
5492;DHT22;2768;53.540;10.224;2023-04-25T00:58:38;8.30;1.00
5492;DHT22;2768;53.540;10.224;2023-04-25T01:04:34;8.30;1.00
5492;DHT22;2768;53.540;10.224;2023-04-25T01:10:28;8.30;1.00
5492;DHT22;2768;53.540;10.224;2023-04-25T01:16:21;8.30;1.00
5492;DHT22;2768;53.540;10.224;2023-04-25T01:22:17;8.40;99.90
5492;DHT22;2768;53.540;10.224;2023-04-25T01:28:10;8.20;99.90
5492;DHT22;2768;53.540;10.224;2023-04-25T01:34:04;8.30;99.90
5492;DHT22;2768;53.540;10.224;2023-04-25T01:39:59;8.30;99.90
5492;DHT22;2768;53.540;10.224;2023-04-25T01:45:53;8.20;99.90
5492;DHT22;2768;53.540;10.224;2023-04-25T01:51:46;8.40;99.90
5492;DHT22;2768;53.540;10.224;2023-04-25T01:57:41;8.20;99.90
5492;DHT22;2768;53.540;10.224;2023-04-25T02:03:37;8.20;99.90
5492;DHT22;2768;53.540;10.224;2023-04-25T02:09:35;8.00;99.90
5492;DHT22;2768;53.540;10.224;2023-04-25T02:15:32;8.00;99.90
5492;DHT22;2768;53.540;10.224;2023-04-25T02:21:38;8.10;99.90
5492;DHT22;2768;53.540;10.224;2023-04-25T02:27:32;8.00;99.90
5492;DHT22;2768;53.540;10.224;2023-04-25T02:33:27;8.10;99.90
5492;DHT22;2768;53.540;10.224;2023-04-25T02:39:22;7.90;99.90
5492;DHT22;2768;53.540;10.224;2023-04-25T02:45:17;8.00;99.90
5492;DHT22;2768;53.540;10.224;2023-04-25T02:51:11;7.80;99.90
5492;DHT22;2768;53.540;10.224;2023-04-25T02:57:05;7.80;99.90
5492;DHT22;2768;53.540;10.224;2023-04-25T03:03:01;7.70;99.90
5492;DHT22;2768;53.540;10.224;2023-04-25T03:08:56;7.90;99.90
5492;DHT22;2768;53.540;10.224;2023-04-25T03:14:49;7.60;99.90
5492;DHT22;2768;53.540;10.224;2023-04-25T03:20:42;7.60;99.90
5492;DHT22;2768;53.540;10.224;2023-04-25T03:26:37;7.60;99.90
5492;DHT22;2768;53.540;10.224;2023-04-25T03:32:31;7.50;99.90
5492;DHT22;2768;53.540;10.224;2023-04-25T03:38:24;7.50;99.90
5492;DHT22;2768;53.540;10.224;2023-04-25T03:44:18;7.40;99.90
5492;DHT22;2768;53.540;10.224;2023-04-25T03:50:12;7.40;99.90
5492;DHT22;2768;53.540;10.224;2023-04-25T03:56:06;7.30;99.90
5492;DHT22;2768;53.540;10.224;2023-04-25T04:02:03;7.20;99.90
5492;DHT22;2768;53.540;10.224;2023-04-25T04:07:59;7.20;99.90
5492;DHT22;2768;53.540;10.224;2023-04-25T04:13:52;7.10;99.90
5492;DHT22;2768;53.540;10.224;2023-04-25T04:19:48;7.00;99.90
5492;DHT22;2768;53.540;10.224;2023-04-25T04:25:44;7.20;99.90
5492;DHT22;2768;53.540;10.224;2023-04-25T04:31:57;7.20;99.90
5492;DHT22;2768;53.540;10.224;2023-04-25T04:37:55;7.10;99.90
5492;DHT22;2768;53.540;10.224;2023-04-25T04:43:53;7.10;98.70
5492;DHT22;2768;53.540;10.224;2023-04-25T04:50:13;7.00;91.10
5492;DHT22;2768;53.540;10.224;2023-04-25T04:56:26;7.10;88.30
5492;DHT22;2768;53.540;10.224;2023-04-25T05:02:38;7.10;76.30
5492;DHT22;2768;53.540;10.224;2023-04-25T05:08:48;7.10;66.60
5492;DHT22;2768;53.540;10.224;2023-04-25T05:15:09;7.20;71.70
5492;DHT22;2768;53.540;10.224;2023-04-25T05:21:26;7.20;76.20
5492;DHT22;2768;53.540;10.224;2023-04-25T05:27:38;7.00;84.70
5492;DHT22;2768;53.540;10.224;2023-04-25T05:33:53;7.00;80.90
5492;DHT22;2768;53.540;10.224;2023-04-25T05:39:49;7.10;79.80
5492;DHT22;2768;53.540;10.224;2023-04-25T05:46:01;6.80;91.40
5492;DHT22;2768;53.540;10.224;2023-04-25T05:52:22;6.90;99.80
5492;DHT22;2768;53.540;10.224;2023-04-25T05:58:26;6.90;99.90
5492;DHT22;2768;53.540;10.224;2023-04-25T06:04:20;7.00;99.90
5492;DHT22;2768;53.540;10.224;2023-04-25T06:10:15;7.10;99.90
5492;DHT22;2768;53.540;10.224;2023-04-25T06:16:08;7.00;99.90
5492;DHT22;2768;53.540;10.224;2023-04-25T06:22:02;7.20;99.90
5492;DHT22;2768;53.540;10.224;2023-04-25T06:27:58;7.20;99.90
5492;DHT22;2768;53.540;10.224;2023-04-25T06:33:51;7.40;99.90
5492;DHT22;2768;53.540;10.224;2023-04-25T06:39:49;7.40;99.90
5492;DHT22;2768;53.540;10.224;2023-04-25T06:45:43;7.40;99.90
5492;DHT22;2768;53.540;10.224;2023-04-25T06:51:40;7.20;99.90
5492;DHT22;2768;53.540;10.224;2023-04-25T06:57:34;7.50;99.90
5492;DHT22;2768;53.540;10.224;2023-04-25T07:03:49;7.40;99.90
5492;DHT22;2768;53.540;10.224;2023-04-25T07:09:43;7.40;99.90
5492;DHT22;2768;53.540;10.224;2023-04-25T07:15:37;7.20;99.90
5492;DHT22;2768;53.540;10.224;2023-04-25T07:21:32;7.50;99.90
5492;DHT22;2768;53.540;10.224;2023-04-25T07:27:27;7.60;99.90
5492;DHT22;2768;53.540;10.224;2023-04-25T07:33:27;7.60;99.90
5492;DHT22;2768;53.540;10.224;2023-04-25T07:39:22;7.40;99.90
5492;DHT22;2768;53.540;10.224;2023-04-25T07:45:15;7.40;99.90
5492;DHT22;2768;53.540;10.224;2023-04-25T07:51:09;7.50;99.90
5492;DHT22;2768;53.540;10.224;2023-04-25T07:57:05;7.30;99.90
5492;DHT22;2768;53.540;10.224;2023-04-25T08:02:59;7.30;99.90
5492;DHT22;2768;53.540;10.224;2023-04-25T08:08:53;7.60;99.90
5492;DHT22;2768;53.540;10.224;2023-04-25T08:14:53;7.90;99.90
5492;DHT22;2768;53.540;10.224;2023-04-25T08:20:48;7.90;99.90
5492;DHT22;2768;53.540;10.224;2023-04-25T08:26:42;8.00;99.90
5492;DHT22;2768;53.540;10.224;2023-04-25T08:32:41;8.20;99.90
5492;DHT22;2768;53.540;10.224;2023-04-25T08:39:13;8.00;99.50
5492;DHT22;2768;53.540;10.224;2023-04-25T08:45:21;7.90;95.50
5492;DHT22;2768;53.540;10.224;2023-04-25T08:51:22;7.70;99.90
5492;DHT22;2768;53.540;10.224;2023-04-25T08:57:17;7.80;99.90
5492;DHT22;2768;53.540;10.224;2023-04-25T09:03:12;8.00;99.90
5492;DHT22;2768;53.540;10.224;2023-04-25T09:09:08;8.10;99.90
5492;DHT22;2768;53.540;10.224;2023-04-25T09:15:05;8.10;99.90
5492;DHT22;2768;53.540;10.224;2023-04-25T09:21:30;8.60;99.90
5492;DHT22;2768;53.540;10.224;2023-04-25T09:27:25;8.70;99.90
5492;DHT22;2768;53.540;10.224;2023-04-25T09:33:40;8.60;69.10
5492;DHT22;2768;53.540;10.224;2023-04-25T09:39:34;8.10;47.70
5492;DHT22;2768;53.540;10.224;2023-04-25T09:45:42;8.00;54.70
5492;DHT22;2768;53.540;10.224;2023-04-25T09:51:40;8.20;53.70
5492;DHT22;2768;53.540;10.224;2023-04-25T09:57:35;8.60;45.40
5492;DHT22;2768;53.540;10.224;2023-04-25T10:03:35;8.70;43.30
5492;DHT22;2768;53.540;10.224;2023-04-25T10:09:43;7.70;99.90
5492;DHT22;2768;53.540;10.224;2023-04-25T10:15:38;7.80;99.90
5492;DHT22;2768;53.540;10.224;2023-04-25T10:21:34;8.20;99.90
5492;DHT22;2768;53.540;10.224;2023-04-25T10:27:27;9.00;99.90
5492;DHT22;2768;53.540;10.224;2023-04-25T10:33:29;9.50;87.80
5492;DHT22;2768;53.540;10.224;2023-04-25T10:39:27;10.20;80.10
5492;DHT22;2768;53.540;10.224;2023-04-25T10:45:20;10.20;62.30
5492;DHT22;2768;53.540;10.224;2023-04-25T10:51:17;9.50;1.00
5492;DHT22;2768;53.540;10.224;2023-04-25T10:57:44;10.80;1.00
5492;DHT22;2768;53.540;10.224;2023-04-25T11:03:41;12.00;1.00
5492;DHT22;2768;53.540;10.224;2023-04-25T11:09:38;11.50;1.00
5492;DHT22;2768;53.540;10.224;2023-04-25T11:15:34;12.20;1.00
5492;DHT22;2768;53.540;10.224;2023-04-25T11:21:27;10.90;1.00
5492;DHT22;2768;53.540;10.224;2023-04-25T11:27:21;10.30;1.00
5492;DHT22;2768;53.540;10.224;2023-04-25T11:33:22;10.20;1.00
5492;DHT22;2768;53.540;10.224;2023-04-25T11:39:16;10.90;1.00
5492;DHT22;2768;53.540;10.224;2023-04-25T11:45:09;10.30;1.00
5492;DHT22;2768;53.540;10.224;2023-04-25T11:51:04;9.60;1.00
5492;DHT22;2768;53.540;10.224;2023-04-25T11:56:57;9.50;1.00
5492;DHT22;2768;53.540;10.224;2023-04-25T12:02:51;9.30;1.00
5492;DHT22;2768;53.540;10.224;2023-04-25T12:09:01;9.10;1.00
5492;DHT22;2768;53.540;10.224;2023-04-25T12:14:55;9.10;1.00
5492;DHT22;2768;53.540;10.224;2023-04-25T12:20:48;10.10;1.00
5492;DHT22;2768;53.540;10.224;2023-04-25T12:26:52;10.10;1.00
5492;DHT22;2768;53.540;10.224;2023-04-25T12:32:46;11.40;1.00
5492;DHT22;2768;53.540;10.224;2023-04-25T12:38:42;10.70;1.00
5492;DHT22;2768;53.540;10.224;2023-04-25T12:44:36;11.60;1.00
5492;DHT22;2768;53.540;10.224;2023-04-25T12:50:29;11.50;1.00
5492;DHT22;2768;53.540;10.224;2023-04-25T12:56:22;11.40;1.00
5492;DHT22;2768;53.540;10.224;2023-04-25T13:02:17;11.90;1.00
5492;DHT22;2768;53.540;10.224;2023-04-25T13:08:11;11.70;1.00
5492;DHT22;2768;53.540;10.224;2023-04-25T13:14:05;11.50;1.00
5492;DHT22;2768;53.540;10.224;2023-04-25T13:19:59;10.60;1.00
5492;DHT22;2768;53.540;10.224;2023-04-25T13:25:53;11.20;1.00
5492;DHT22;2768;53.540;10.224;2023-04-25T13:31:47;11.90;1.00
5492;DHT22;2768;53.540;10.224;2023-04-25T13:37:42;11.60;1.00
5492;DHT22;2768;53.540;10.224;2023-04-25T13:43:35;9.80;1.00
5492;DHT22;2768;53.540;10.224;2023-04-25T13:49:29;9.00;1.00
5492;DHT22;2768;53.540;10.224;2023-04-25T13:55:24;9.10;1.00
5492;DHT22;2768;53.540;10.224;2023-04-25T14:01:17;11.20;1.00
5492;DHT22;2768;53.540;10.224;2023-04-25T14:07:12;10.00;1.00
5492;DHT22;2768;53.540;10.224;2023-04-25T14:13:09;8.80;1.00
5492;DHT22;2768;53.540;10.224;2023-04-25T14:19:02;8.30;1.00
5492;DHT22;2768;53.540;10.224;2023-04-25T14:24:56;8.40;1.00
5492;DHT22;2768;53.540;10.224;2023-04-25T14:30:51;8.40;1.00
5492;DHT22;2768;53.540;10.224;2023-04-25T14:36:44;8.50;1.00
5492;DHT22;2768;53.540;10.224;2023-04-25T14:42:38;10.60;1.00
5492;DHT22;2768;53.540;10.224;2023-04-25T14:48:33;12.00;1.00
5492;DHT22;2768;53.540;10.224;2023-04-25T14:54:27;12.00;1.00
5492;DHT22;2768;53.540;10.224;2023-04-25T15:00:21;11.40;1.00
5492;DHT22;2768;53.540;10.224;2023-04-25T15:06:16;10.90;1.00
5492;DHT22;2768;53.540;10.224;2023-04-25T15:12:10;10.30;1.00
5492;DHT22;2768;53.540;10.224;2023-04-25T15:18:03;10.80;1.00
5492;DHT22;2768;53.540;10.224;2023-04-25T15:23:59;10.50;1.00
5492;DHT22;2768;53.540;10.224;2023-04-25T15:29:52;10.10;1.00
5492;DHT22;2768;53.540;10.224;2023-04-25T15:35:46;9.90;1.00
5492;DHT22;2768;53.540;10.224;2023-04-25T15:41:40;9.80;1.00
5492;DHT22;2768;53.540;10.224;2023-04-25T15:47:35;9.60;1.00
5492;DHT22;2768;53.540;10.224;2023-04-25T15:53:29;9.80;1.00
5492;DHT22;2768;53.540;10.224;2023-04-25T15:59:24;9.70;1.00
5492;DHT22;2768;53.540;10.224;2023-04-25T16:05:18;9.50;1.00
5492;DHT22;2768;53.540;10.224;2023-04-25T16:11:12;9.60;1.00
5492;DHT22;2768;53.540;10.224;2023-04-25T16:17:07;9.60;1.00
5492;DHT22;2768;53.540;10.224;2023-04-25T16:23:01;9.80;1.00
5492;DHT22;2768;53.540;10.224;2023-04-25T16:28:54;10.10;1.00
5492;DHT22;2768;53.540;10.224;2023-04-25T16:34:49;10.00;1.00
5492;DHT22;2768;53.540;10.224;2023-04-25T16:40:42;9.70;1.00
5492;DHT22;2768;53.540;10.224;2023-04-25T16:46:35;9.60;1.00
5492;DHT22;2768;53.540;10.224;2023-04-25T16:52:30;9.30;1.00
5492;DHT22;2768;53.540;10.224;2023-04-25T16:58:23;9.00;1.00
5492;DHT22;2768;53.540;10.224;2023-04-25T17:04:18;8.90;1.00
5492;DHT22;2768;53.540;10.224;2023-04-25T17:10:12;9.00;1.00
5492;DHT22;2768;53.540;10.224;2023-04-25T17:16:06;8.90;1.00
5492;DHT22;2768;53.540;10.224;2023-04-25T17:22:01;8.70;1.00
5492;DHT22;2768;53.540;10.224;2023-04-25T17:27:56;8.50;1.00
5492;DHT22;2768;53.540;10.224;2023-04-25T17:33:49;8.40;1.00
5492;DHT22;2768;53.540;10.224;2023-04-25T17:39:42;8.20;1.00
5492;DHT22;2768;53.540;10.224;2023-04-25T17:45:37;7.90;45.30
5492;DHT22;2768;53.540;10.224;2023-04-25T17:51:31;8.00;63.70
5492;DHT22;2768;53.540;10.224;2023-04-25T17:57:24;7.80;48.20
5492;DHT22;2768;53.540;10.224;2023-04-25T18:03:19;7.60;54.90
5492;DHT22;2768;53.540;10.224;2023-04-25T18:09:13;7.50;32.80
5492;DHT22;2768;53.540;10.224;2023-04-25T18:15:09;7.50;35.50
5492;DHT22;2768;53.540;10.224;2023-04-25T18:21:04;7.60;44.60
5492;DHT22;2768;53.540;10.224;2023-04-25T18:26:59;7.70;34.10
5492;DHT22;2768;53.540;10.224;2023-04-25T18:32:56;7.50;28.80
5492;DHT22;2768;53.540;10.224;2023-04-25T18:38:51;7.50;31.50
5492;DHT22;2768;53.540;10.224;2023-04-25T18:44:47;7.50;29.60
5492;DHT22;2768;53.540;10.224;2023-04-25T18:50:42;7.50;28.90
5492;DHT22;2768;53.540;10.224;2023-04-25T18:56:36;7.20;22.20
5492;DHT22;2768;53.540;10.224;2023-04-25T19:02:30;7.30;27.70
5492;DHT22;2768;53.540;10.224;2023-04-25T19:08:24;7.20;25.50
5492;DHT22;2768;53.540;10.224;2023-04-25T19:14:19;7.10;26.00
5492;DHT22;2768;53.540;10.224;2023-04-25T19:20:12;7.10;28.70
5492;DHT22;2768;53.540;10.224;2023-04-25T19:26:05;7.10;31.60
5492;DHT22;2768;53.540;10.224;2023-04-25T19:32:01;6.90;44.30
5492;DHT22;2768;53.540;10.224;2023-04-25T19:37:54;6.80;56.80
5492;DHT22;2768;53.540;10.224;2023-04-25T19:43:47;6.70;60.30
5492;DHT22;2768;53.540;10.224;2023-04-25T19:49:42;6.70;64.70
5492;DHT22;2768;53.540;10.224;2023-04-25T19:55:35;6.80;65.40
5492;DHT22;2768;53.540;10.224;2023-04-25T20:01:29;6.90;66.60
5492;DHT22;2768;53.540;10.224;2023-04-25T20:07:24;7.00;57.00
5492;DHT22;2768;53.540;10.224;2023-04-25T20:13:17;7.00;48.40
5492;DHT22;2768;53.540;10.224;2023-04-25T20:19:12;6.90;42.40
5492;DHT22;2768;53.540;10.224;2023-04-25T20:25:08;6.70;46.70
5492;DHT22;2768;53.540;10.224;2023-04-25T20:31:02;7.00;69.50
5492;DHT22;2768;53.540;10.224;2023-04-25T20:36:55;6.90;90.80
5492;DHT22;2768;53.540;10.224;2023-04-25T20:42:50;6.90;94.50
5492;DHT22;2768;53.540;10.224;2023-04-25T20:48:44;6.80;99.30
5492;DHT22;2768;53.540;10.224;2023-04-25T20:54:37;6.60;96.00
5492;DHT22;2768;53.540;10.224;2023-04-25T21:00:32;6.60;96.60
5492;DHT22;2768;53.540;10.224;2023-04-25T21:06:26;6.60;99.70
5492;DHT22;2768;53.540;10.224;2023-04-25T21:12:20;6.40;99.90
5492;DHT22;2768;53.540;10.224;2023-04-25T21:18:15;6.40;99.90
5492;DHT22;2768;53.540;10.224;2023-04-25T21:24:10;6.30;99.90
5492;DHT22;2768;53.540;10.224;2023-04-25T21:30:04;6.20;99.90
5492;DHT22;2768;53.540;10.224;2023-04-25T21:35:59;6.30;99.90
5492;DHT22;2768;53.540;10.224;2023-04-25T21:41:53;6.40;99.90
5492;DHT22;2768;53.540;10.224;2023-04-25T21:47:47;6.60;99.90
5492;DHT22;2768;53.540;10.224;2023-04-25T21:53:43;6.60;99.90
5492;DHT22;2768;53.540;10.224;2023-04-25T21:59:36;6.20;99.90
5492;DHT22;2768;53.540;10.224;2023-04-25T22:05:30;6.20;99.90
5492;DHT22;2768;53.540;10.224;2023-04-25T22:11:26;6.10;99.90
5492;DHT22;2768;53.540;10.224;2023-04-25T22:17:20;6.20;99.90
5492;DHT22;2768;53.540;10.224;2023-04-25T22:23:16;6.00;99.90
5492;DHT22;2768;53.540;10.224;2023-04-25T22:29:11;5.80;99.90
5492;DHT22;2768;53.540;10.224;2023-04-25T22:35:06;5.80;99.90
5492;DHT22;2768;53.540;10.224;2023-04-25T22:41:00;5.80;99.90
5492;DHT22;2768;53.540;10.224;2023-04-25T22:46:54;5.80;99.90
5492;DHT22;2768;53.540;10.224;2023-04-25T22:52:48;5.80;99.90
5492;DHT22;2768;53.540;10.224;2023-04-25T22:58:42;5.60;99.90
5492;DHT22;2768;53.540;10.224;2023-04-25T23:04:36;5.60;99.90
5492;DHT22;2768;53.540;10.224;2023-04-25T23:10:30;5.70;99.90
5492;DHT22;2768;53.540;10.224;2023-04-25T23:16:24;5.70;99.90
5492;DHT22;2768;53.540;10.224;2023-04-25T23:22:19;5.60;99.90
5492;DHT22;2768;53.540;10.224;2023-04-25T23:28:12;5.50;99.90
5492;DHT22;2768;53.540;10.224;2023-04-25T23:34:06;5.60;99.90
5492;DHT22;2768;53.540;10.224;2023-04-25T23:40:01;5.50;99.90
5492;DHT22;2768;53.540;10.224;2023-04-25T23:45:59;5.40;99.90
5492;DHT22;2768;53.540;10.224;2023-04-25T23:51:52;5.50;99.90
5492;DHT22;2768;53.540;10.224;2023-04-25T23:57:47;5.60;99.90
